sensor_id;sensor_type;location;lat;lon;timestamp;P1;durP1;ratioP1;P2;durP2;ratioP2
3401;SDS011;1714;49.756;8.610;2022-11-13T08:44:45;11.18;;;6.97;;
3401;SDS011;1714;49.756;8.610;2022-11-13T08:55:01;11.32;;;6.93;;
3401;SDS011;1714;49.756;8.610;2022-11-13T09:05:17;8.02;;;6.85;;
3401;SDS011;1714;49.756;8.610;2022-11-13T09:15:33;8.45;;;6.78;;
3401;SDS011;1714;49.756;8.610;2022-11-13T09:25:52;8.55;;;6.70;;
3401;SDS011;1714;49.756;8.610;2022-11-13T09:36:10;9.70;;;6.95;;
3401;SDS011;1714;49.756;8.610;2022-11-13T09:46:50;11.52;;;7.43;;
3401;SDS011;1714;49.756;8.610;2022-11-13T09:57:27;8.13;;;7.10;;
3401;SDS011;1714;49.756;8.610;2022-11-13T10:18:19;10.63;;;7.70;;
3401;SDS011;1714;49.756;8.610;2022-11-13T10:28:37;11.57;;;7.15;;
3401;SDS011;1714;49.756;8.610;2022-11-13T10:39:05;10.18;;;6.35;;
3401;SDS011;1714;49.756;8.610;2022-11-13T10:59:43;4.07;;;3.00;;
3401;SDS011;1714;49.756;8.610;2022-11-13T11:09:59;3.78;;;3.42;;
3401;SDS011;1714;49.756;8.610;2022-11-13T11:30:45;4.95;;;2.90;;
3401;SDS011;1714;49.756;8.610;2022-11-13T11:41:07;3.25;;;2.42;;
3401;SDS011;1714;49.756;8.610;2022-11-13T11:51:33;4.63;;;2.85;;
3401;SDS011;1714;49.756;8.610;2022-11-13T12:33:44;7.57;;;5.97;;
3401;SDS011;1714;49.756;8.610;2022-11-13T12:44:21;5.97;;;5.03;;
3401;SDS011;1714;49.756;8.610;2022-11-13T12:54:37;6.03;;;4.90;;
3401;SDS011;1714;49.756;8.610;2022-11-13T13:15:29;3.70;;;2.10;;
3401;SDS011;1714;49.756;8.610;2022-11-13T13:26:00;2.78;;;1.92;;
3401;SDS011;1714;49.756;8.610;2022-11-13T13:46:55;2.63;;;2.05;;
3401;SDS011;1714;49.756;8.610;2022-11-13T13:57:13;4.95;;;2.60;;
3401;SDS011;1714;49.756;8.610;2022-11-13T14:17:47;3.28;;;2.55;;
3401;SDS011;1714;49.756;8.610;2022-11-13T14:28:03;2.47;;;2.17;;
3401;SDS011;1714;49.756;8.610;2022-11-13T14:38:23;3.35;;;2.08;;
3401;SDS011;1714;49.756;8.610;2022-11-13T14:48:49;5.20;;;2.40;;
3401;SDS011;1714;49.756;8.610;2022-11-13T14:59:09;4.30;;;2.65;;
3401;SDS011;1714;49.756;8.610;2022-11-13T15:09:33;5.63;;;3.30;;
3401;SDS011;1714;49.756;8.610;2022-11-13T15:19:52;6.43;;;3.85;;
3401;SDS011;1714;49.756;8.610;2022-11-13T15:30:08;4.07;;;3.38;;
3401;SDS011;1714;49.756;8.610;2022-11-13T15:40:25;6.88;;;4.07;;
3401;SDS011;1714;49.756;8.610;2022-11-13T15:50:41;6.80;;;4.45;;
3401;SDS011;1714;49.756;8.610;2022-11-13T16:00:56;6.32;;;4.20;;
3401;SDS011;1714;49.756;8.610;2022-11-13T16:11:16;8.10;;;4.68;;
3401;SDS011;1714;49.756;8.610;2022-11-13T16:21:33;7.07;;;4.68;;
3401;SDS011;1714;49.756;8.610;2022-11-13T16:31:49;16.17;;;8.18;;
3401;SDS011;1714;49.756;8.610;2022-11-13T16:42:04;10.85;;;5.85;;
3401;SDS011;1714;49.756;8.610;2022-11-13T16:52:20;6.85;;;4.80;;
3401;SDS011;1714;49.756;8.610;2022-11-13T17:02:36;6.30;;;4.60;;
3401;SDS011;1714;49.756;8.610;2022-11-13T17:12:53;7.55;;;4.82;;
3401;SDS011;1714;49.756;8.610;2022-11-13T17:23:12;9.35;;;5.22;;
3401;SDS011;1714;49.756;8.610;2022-11-13T17:33:30;14.32;;;10.38;;
3401;SDS011;1714;49.756;8.610;2022-11-13T17:43:46;14.15;;;9.57;;
3401;SDS011;1714;49.756;8.610;2022-11-13T17:54:02;14.77;;;9.57;;
3401;SDS011;1714;49.756;8.610;2022-11-13T18:04:18;9.82;;;6.35;;
3401;SDS011;1714;49.756;8.610;2022-11-13T18:14:33;31.80;;;20.05;;
3401;SDS011;1714;49.756;8.610;2022-11-13T18:24:49;36.03;;;21.45;;
3401;SDS011;1714;49.756;8.610;2022-11-13T18:35:05;71.15;;;36.55;;
3401;SDS011;1714;49.756;8.610;2022-11-13T18:45:22;39.88;;;22.63;;
3401;SDS011;1714;49.756;8.610;2022-11-13T18:55:38;26.42;;;14.70;;
3401;SDS011;1714;49.756;8.610;2022-11-13T19:05:53;15.07;;;9.63;;
3401;SDS011;1714;49.756;8.610;2022-11-13T19:16:14;22.73;;;13.32;;
3401;SDS011;1714;49.756;8.610;2022-11-13T19:26:49;9.93;;;7.07;;
3401;SDS011;1714;49.756;8.610;2022-11-13T19:37:05;12.43;;;7.50;;
3401;SDS011;1714;49.756;8.610;2022-11-13T19:47:21;17.30;;;9.02;;
3401;SDS011;1714;49.756;8.610;2022-11-13T19:57:37;10.48;;;7.15;;
3401;SDS011;1714;49.756;8.610;2022-11-13T20:07:59;14.80;;;8.35;;
3401;SDS011;1714;49.756;8.610;2022-11-13T20:18:15;12.18;;;8.18;;
3401;SDS011;1714;49.756;8.610;2022-11-13T20:28:31;17.52;;;10.60;;
3401;SDS011;1714;49.756;8.610;2022-11-13T20:38:48;18.20;;;10.85;;
3401;SDS011;1714;49.756;8.610;2022-11-13T20:49:08;16.95;;;10.50;;
3401;SDS011;1714;49.756;8.610;2022-11-13T20:59:24;12.90;;;8.20;;
3401;SDS011;1714;49.756;8.610;2022-11-13T21:09:40;12.93;;;8.23;;
3401;SDS011;1714;49.756;8.610;2022-11-13T21:20:03;14.45;;;8.98;;
3401;SDS011;1714;49.756;8.610;2022-11-13T21:30:20;20.50;;;9.40;;
3401;SDS011;1714;49.756;8.610;2022-11-13T21:40:36;12.65;;;8.65;;
3401;SDS011;1714;49.756;8.610;2022-11-13T21:50:53;23.50;;;12.40;;
3401;SDS011;1714;49.756;8.610;2022-11-13T22:01:09;19.33;;;11.27;;
3401;SDS011;1714;49.756;8.610;2022-11-13T22:11:27;14.73;;;8.87;;
3401;SDS011;1714;49.756;8.610;2022-11-13T22:21:45;15.95;;;8.07;;
3401;SDS011;1714;49.756;8.610;2022-11-13T22:32:01;13.15;;;8.23;;
3401;SDS011;1714;49.756;8.610;2022-11-13T22:42:17;20.10;;;10.82;;
3401;SDS011;1714;49.756;8.610;2022-11-13T22:52:33;19.90;;;11.88;;
3401;SDS011;1714;49.756;8.610;2022-11-13T23:02:49;26.60;;;14.55;;
3401;SDS011;1714;49.756;8.610;2022-11-13T23:13:05;20.73;;;13.52;;
3401;SDS011;1714;49.756;8.610;2022-11-13T23:23:21;29.33;;;15.75;;
3401;SDS011;1714;49.756;8.610;2022-11-13T23:33:37;27.88;;;17.20;;
3401;SDS011;1714;49.756;8.610;2022-11-13T23:43:54;27.80;;;15.68;;
3401;SDS011;1714;49.756;8.610;2022-11-13T23:54:25;26.20;;;15.05;;
